Alban, Wisconsin
Current Conditions -  °F | °C
As of 7:35 AM on Sunday 21 Dec 2014 (Local Time) from KSTE Reporting Station
Haze Haze  
Wind Chill: 21°   Ceiling: 500
Heat Index: 28°   Visibility: 3mi
Dew Point: 27°   Wind: 7mph
Humidity: 96%   Direction: 140°SE
Pressure: 30.07"   Gusts: NA
Location:  44.6794°N, 89.3392°W
Report Text: KSTE 211335Z AUTO 14006KT 3SM BR OVC005 M02/M03 A3007 RMK AO2 T10221028
Loading
Personal Weather Stations






























Interactive Weather Map New forecast layout! Learn more

10-Day Weather Forecast

Advertisements
Track Severe Weather on mobile